createdAt,value
2023-05-06T00:00:43.141Z,14.02
2023-05-06T00:02:45.406Z,11.63
2023-05-06T00:04:48.001Z,7.93
2023-05-06T00:06:50.478Z,10.73
2023-05-06T00:08:52.864Z,10.18
2023-05-06T00:10:55.277Z,8.80
2023-05-06T00:12:57.588Z,11.98
2023-05-06T00:14:59.733Z,8.82
2023-05-06T00:17:02.273Z,8.63
2023-05-06T00:19:04.525Z,11.25
2023-05-06T00:21:07.119Z,5.25
2023-05-06T00:23:09.238Z,14.27
2023-05-06T00:25:11.687Z,12.35
2023-05-06T00:27:13.949Z,12.68
2023-05-06T00:29:16.275Z,13.40
2023-05-06T00:31:18.498Z,9.07
2023-05-06T00:33:20.721Z,9.50
2023-05-06T00:35:22.812Z,11.52
2023-05-06T00:37:25.042Z,12.40
2023-05-06T00:39:27.322Z,15.70
2023-05-06T00:41:33.504Z,10.60
2023-05-06T00:43:35.756Z,15.30
2023-05-06T00:45:38.409Z,8.68
2023-05-06T00:47:40.810Z,19.52
2023-05-06T00:49:43.209Z,17.88
2023-05-06T00:51:45.668Z,12.80
2023-05-06T00:53:47.927Z,14.00
2023-05-06T00:55:51.616Z,12.73
2023-05-06T00:57:54.481Z,16.17
2023-05-06T00:59:56.627Z,12.80
2023-05-06T01:01:59.448Z,10.55
2023-05-06T01:04:01.804Z,9.32
2023-05-06T01:06:12.352Z,9.57
2023-05-06T01:08:24.021Z,14.60
2023-05-06T01:10:27.684Z,10.45
2023-05-06T01:12:37.832Z,14.32
2023-05-06T01:14:44.560Z,10.82
2023-05-06T01:16:51.033Z,11.77
2023-05-06T01:18:55.181Z,11.05
2023-05-06T01:20:57.562Z,14.32
2023-05-06T01:23:01.448Z,11.40
2023-05-06T01:25:03.563Z,9.23
2023-05-06T01:27:06.491Z,14.90
2023-05-06T01:29:08.923Z,14.93
2023-05-06T01:31:16.929Z,14.80
2023-05-06T01:33:30.624Z,12.35
2023-05-06T01:35:39.300Z,15.18
2023-05-06T01:37:47.692Z,15.05
2023-05-06T01:39:50.380Z,12.40
2023-05-06T01:41:53.906Z,13.45
2023-05-06T01:44:00.662Z,13.35
2023-05-06T01:46:03.735Z,14.68
2023-05-06T01:48:06.994Z,13.15
2023-05-06T01:50:10.061Z,17.85
2023-05-06T01:52:11.988Z,13.07
2023-05-06T01:54:14.337Z,11.05
2023-05-06T01:56:16.722Z,14.55
2023-05-06T01:58:18.722Z,15.88
2023-05-06T02:00:21.032Z,11.13
2023-05-06T02:02:24.539Z,14.00
2023-05-06T02:04:26.540Z,17.38
2023-05-06T02:06:28.459Z,18.77
2023-05-06T02:08:30.669Z,14.10
2023-05-06T02:10:32.674Z,13.73
2023-05-06T02:12:34.907Z,16.92
2023-05-06T02:14:36.937Z,13.48
2023-05-06T02:16:38.944Z,14.55
2023-05-06T02:18:41.730Z,21.10
2023-05-06T02:20:43.740Z,17.30
2023-05-06T02:22:45.981Z,17.10
2023-05-06T02:24:48.059Z,11.63
2023-05-06T02:26:50.079Z,14.65
2023-05-06T02:28:52.014Z,15.27
2023-05-06T02:30:57.290Z,13.57
2023-05-06T02:32:59.264Z,18.92
2023-05-06T02:35:01.328Z,11.85
2023-05-06T02:37:03.643Z,12.70
2023-05-06T02:39:05.896Z,17.83
2023-05-06T02:41:07.903Z,18.52
2023-05-06T02:43:09.954Z,16.40
2023-05-06T02:45:13.234Z,13.65
2023-05-06T02:47:15.623Z,18.65
2023-05-06T02:49:17.848Z,12.15
2023-05-06T02:51:19.856Z,15.52
2023-05-06T02:53:22.162Z,18.35
2023-05-06T02:55:24.297Z,13.27
2023-05-06T02:57:26.562Z,13.88
2023-05-06T02:59:28.638Z,15.30
2023-05-06T03:01:30.669Z,16.83
2023-05-06T03:03:33.774Z,23.90
2023-05-06T03:05:35.992Z,15.63
2023-05-06T03:07:38.728Z,16.98
2023-05-06T03:09:40.856Z,12.60
2023-05-06T03:11:42.900Z,14.65
2023-05-06T03:13:44.895Z,15.85
2023-05-06T03:15:52.432Z,15.82
2023-05-06T03:17:54.492Z,15.02
2023-05-06T03:19:56.847Z,17.70
2023-05-06T03:21:58.868Z,19.77
2023-05-06T03:24:01.172Z,16.17
2023-05-06T03:26:03.167Z,21.35
2023-05-06T03:28:05.654Z,14.15
2023-05-06T03:30:08.752Z,16.33
2023-05-06T03:32:10.687Z,16.65
2023-05-06T03:34:12.710Z,16.80
2023-05-06T03:36:14.843Z,21.73
2023-05-06T03:38:17.132Z,19.65
2023-05-06T03:40:19.114Z,16.88
2023-05-06T03:42:21.199Z,23.90
2023-05-06T03:44:23.187Z,19.23
2023-05-06T03:46:25.191Z,19.17
2023-05-06T03:48:27.180Z,25.65
2023-05-06T03:50:29.153Z,15.30
2023-05-06T03:52:31.225Z,17.27
2023-05-06T03:54:33.601Z,20.77
2023-05-06T03:56:36.256Z,20.58
2023-05-06T03:58:38.255Z,16.67
2023-05-06T04:00:40.289Z,24.02
2023-05-06T04:02:42.853Z,18.40
2023-05-06T04:04:44.941Z,18.10
2023-05-06T04:06:47.259Z,20.30
2023-05-06T04:08:49.314Z,17.70
2023-05-06T04:10:51.310Z,24.67
2023-05-06T04:12:53.389Z,17.90
2023-05-06T04:14:55.659Z,18.02
2023-05-06T04:16:57.695Z,16.38
2023-05-06T04:18:59.631Z,24.70
2023-05-06T04:21:01.619Z,23.02
2023-05-06T04:23:03.660Z,16.27
2023-05-06T04:25:06.932Z,24.02
2023-05-06T04:27:08.851Z,21.63
2023-05-06T04:29:10.895Z,20.02
2023-05-06T04:31:14.845Z,19.05
2023-05-06T04:33:16.920Z,16.80
2023-05-06T04:35:19.174Z,20.58
2023-05-06T04:37:21.343Z,24.00
2023-05-06T04:39:23.384Z,23.45
2023-05-06T04:41:26.311Z,24.30
2023-05-06T04:43:28.357Z,17.90
2023-05-06T04:45:30.463Z,14.65
2023-05-06T04:47:32.599Z,20.75
2023-05-06T04:49:35.194Z,13.85
2023-05-06T04:51:37.169Z,16.00
2023-05-06T04:53:39.230Z,20.33
2023-05-06T04:55:41.405Z,15.25
2023-05-06T04:57:43.494Z,19.00
2023-05-06T04:59:45.454Z,19.75
2023-05-06T05:01:47.439Z,21.70
2023-05-06T05:03:49.727Z,20.73
2023-05-06T05:05:52.191Z,19.55
2023-05-06T05:07:54.247Z,16.45
2023-05-06T05:09:56.291Z,18.15
2023-05-06T05:11:58.249Z,22.45
2023-05-06T05:14:02.146Z,17.15
2023-05-06T05:16:05.008Z,13.75
2023-05-06T05:18:07.002Z,17.42
2023-05-06T05:20:09.625Z,21.73
2023-05-06T05:22:11.976Z,17.38
2023-05-06T05:24:13.926Z,18.63
2023-05-06T05:26:15.934Z,20.10
2023-05-06T05:28:17.817Z,22.00
2023-05-06T05:30:19.855Z,19.08
2023-05-06T05:32:22.001Z,16.80
2023-05-06T05:34:24.293Z,17.50
2023-05-06T05:36:28.393Z,14.98
2023-05-06T05:38:30.428Z,20.23
2023-05-06T05:40:32.429Z,18.05
2023-05-06T05:42:34.455Z,16.67
2023-05-06T05:44:36.651Z,22.88
2023-05-06T05:46:38.846Z,21.20
2023-05-06T05:48:40.881Z,20.85
2023-05-06T05:50:42.788Z,15.27
2023-05-06T05:52:44.719Z,17.65
2023-05-06T05:54:46.705Z,18.85
2023-05-06T05:56:48.898Z,15.95
2023-05-06T05:58:51.017Z,15.32
2023-05-06T06:00:53.109Z,16.52
2023-05-06T06:02:55.573Z,19.38
2023-05-06T06:04:57.744Z,24.40
2023-05-06T06:07:01.968Z,18.23
2023-05-06T06:09:04.534Z,21.95
2023-05-06T06:11:06.935Z,21.27
2023-05-06T06:13:08.946Z,15.25
2023-05-06T06:15:11.948Z,19.30
2023-05-06T06:17:15.577Z,15.07
2023-05-06T06:19:18.058Z,19.75
2023-05-06T06:21:20.109Z,13.63
2023-05-06T06:23:22.485Z,13.82
2023-05-06T06:25:24.477Z,17.77
2023-05-06T06:27:26.563Z,15.02
2023-05-06T06:29:28.800Z,16.52
2023-05-06T06:31:30.849Z,19.92
2023-05-06T06:33:32.852Z,13.02
2023-05-06T06:35:35.017Z,14.70
2023-05-06T06:37:37.020Z,14.98
2023-05-06T06:39:39.072Z,17.60
2023-05-06T06:41:41.066Z,14.60
2023-05-06T06:43:43.193Z,13.35
2023-05-06T06:45:47.961Z,19.27
2023-05-06T06:47:50.331Z,15.20
2023-05-06T06:49:52.617Z,15.35
2023-05-06T06:51:56.875Z,14.35
2023-05-06T06:53:59.015Z,15.75
2023-05-06T06:56:01.351Z,15.15
2023-05-06T06:58:03.468Z,11.10
2023-05-06T07:00:06.256Z,15.98
2023-05-06T07:02:08.420Z,17.73
2023-05-06T07:04:10.400Z,16.02
2023-05-06T07:06:12.702Z,11.20
2023-05-06T07:08:15.219Z,9.57
2023-05-06T07:10:17.186Z,13.20
2023-05-06T07:12:19.186Z,8.07
2023-05-06T07:14:21.245Z,13.60
2023-05-06T07:16:23.341Z,13.85
2023-05-06T07:18:25.482Z,16.10
2023-05-06T07:20:27.603Z,13.88
2023-05-06T07:22:29.822Z,10.60
2023-05-06T07:24:31.811Z,17.35
2023-05-06T07:26:36.756Z,16.52
2023-05-06T07:28:38.802Z,16.30
2023-05-06T07:30:40.877Z,15.20
2023-05-06T07:32:43.643Z,12.40
2023-05-06T07:34:45.739Z,15.93
2023-05-06T07:36:47.804Z,12.00
2023-05-06T07:38:50.076Z,14.88
2023-05-06T07:40:52.187Z,12.93
2023-05-06T07:42:54.415Z,17.45
2023-05-06T07:44:56.514Z,15.05
2023-05-06T07:46:58.715Z,14.65
2023-05-06T07:49:01.082Z,9.80
2023-05-06T07:51:04.014Z,14.00
2023-05-06T07:53:06.321Z,12.90
2023-05-06T07:55:10.283Z,12.50
2023-05-06T07:57:12.609Z,11.07
2023-05-06T07:59:14.908Z,13.68
2023-05-06T08:01:16.910Z,11.27
2023-05-06T08:03:19.461Z,15.68
2023-05-06T08:05:21.681Z,19.65
2023-05-06T08:07:23.857Z,16.35
2023-05-06T08:09:25.965Z,14.68
2023-05-06T08:11:27.940Z,12.25
2023-05-06T08:13:30.839Z,17.70
2023-05-06T08:15:32.935Z,11.25
2023-05-06T08:17:35.027Z,12.45
2023-05-06T08:19:37.221Z,14.27
2023-05-06T08:21:39.321Z,15.05
2023-05-06T08:23:41.660Z,15.77
2023-05-06T08:25:43.695Z,14.93
2023-05-06T08:27:46.072Z,10.93
2023-05-06T08:29:48.147Z,14.68
2023-05-06T08:31:50.228Z,11.50
2023-05-06T08:33:54.400Z,19.75
2023-05-06T08:35:58.712Z,16.17
2023-05-06T08:38:01.229Z,17.38
2023-05-06T08:40:05.423Z,16.00
2023-05-06T08:42:11.920Z,21.13
2023-05-06T08:44:18.675Z,14.55
2023-05-06T08:46:21.002Z,19.17
2023-05-06T08:48:23.140Z,11.68
2023-05-06T08:50:26.092Z,10.90
2023-05-06T08:52:28.906Z,11.93
2023-05-06T08:54:34.823Z,13.18
2023-05-06T08:56:38.703Z,12.98
2023-05-06T08:58:46.199Z,14.25
2023-05-06T09:00:48.765Z,18.05
2023-05-06T09:02:50.894Z,12.35
2023-05-06T09:04:54.409Z,16.23
2023-05-06T09:06:59.286Z,14.15
2023-05-06T09:09:01.461Z,18.40
2023-05-06T09:11:03.648Z,24.02
2023-05-06T09:13:05.714Z,27.05
2023-05-06T09:15:09.652Z,52.63
2023-05-06T09:17:24.276Z,37.88
2023-05-06T09:19:27.725Z,98.47
2023-05-06T09:21:34.954Z,63.45
2023-05-06T09:23:38.508Z,125.28
2023-05-06T09:25:41.176Z,42.10
2023-05-06T09:27:43.279Z,37.50
2023-05-06T09:30:01.936Z,32.63
2023-05-06T09:32:09.166Z,16.13
2023-05-06T09:34:12.147Z,15.88
2023-05-06T09:36:14.566Z,14.25
2023-05-06T09:38:16.684Z,14.63
2023-05-06T09:40:18.925Z,19.38
2023-05-06T09:42:25.667Z,11.85
2023-05-06T09:44:28.085Z,9.90
2023-05-06T09:46:30.615Z,10.52
2023-05-06T09:48:32.966Z,6.18
2023-05-06T09:50:36.372Z,8.23
2023-05-06T09:52:38.676Z,6.22
2023-05-06T09:54:41.990Z,6.25
2023-05-06T09:56:46.749Z,7.78
2023-05-06T09:58:50.372Z,8.65
2023-05-06T10:00:53.802Z,9.45
2023-05-06T10:02:57.323Z,7.38
2023-05-06T10:05:01.133Z,9.02
2023-05-06T10:07:04.177Z,8.90
2023-05-06T10:09:08.157Z,9.15
2023-05-06T10:11:11.061Z,8.15
2023-05-06T10:13:14.318Z,6.70
2023-05-06T10:15:17.069Z,10.63
2023-05-06T10:17:19.608Z,12.10
2023-05-06T10:19:26.126Z,10.05
2023-05-06T10:21:32.673Z,3.53
2023-05-06T10:23:40.667Z,10.23
2023-05-06T10:25:43.999Z,5.65
2023-05-06T10:27:47.099Z,5.70
2023-05-06T10:29:49.597Z,6.90
2023-05-06T10:31:55.914Z,8.27
2023-05-06T10:34:01.301Z,7.35
2023-05-06T10:36:10.149Z,7.00
2023-05-06T10:38:18.492Z,5.53
2023-05-06T10:40:21.437Z,13.77
2023-05-06T10:42:28.613Z,6.28
2023-05-06T10:44:37.062Z,6.82
2023-05-06T10:46:45.682Z,8.57
2023-05-06T10:48:54.181Z,9.93
2023-05-06T10:51:02.496Z,8.25
2023-05-06T10:53:04.526Z,5.50
2023-05-06T10:55:27.980Z,5.85
2023-05-06T10:57:41.459Z,8.95
2023-05-06T10:59:47.532Z,6.82
2023-05-06T11:01:56.189Z,4.88
2023-05-06T11:03:58.800Z,7.05
2023-05-06T11:06:01.315Z,6.43
2023-05-06T11:08:10.667Z,3.08
2023-05-06T11:10:12.873Z,5.15
2023-05-06T11:12:21.136Z,6.63
2023-05-06T11:14:27.823Z,8.98
2023-05-06T11:16:42.549Z,7.20
2023-05-06T11:18:45.025Z,6.70
2023-05-06T11:20:47.143Z,5.95
2023-05-06T11:22:49.948Z,5.70
2023-05-06T11:24:52.250Z,4.25
2023-05-06T11:26:55.048Z,6.22
2023-05-06T11:29:02.397Z,7.78
2023-05-06T11:31:05.263Z,5.53
2023-05-06T11:33:08.854Z,5.53
2023-05-06T11:35:12.242Z,6.25
2023-05-06T11:37:26.007Z,6.93
2023-05-06T11:39:31.028Z,5.95
2023-05-06T11:41:33.152Z,5.95
2023-05-06T11:43:35.456Z,4.93
2023-05-06T11:45:44.315Z,3.85
2023-05-06T11:47:46.409Z,2.50
2023-05-06T11:49:52.427Z,6.38
2023-05-06T11:51:57.265Z,12.43
2023-05-06T11:54:05.266Z,5.20
2023-05-06T11:56:07.841Z,3.70
2023-05-06T11:58:14.874Z,3.70
2023-05-06T12:00:18.885Z,3.88
2023-05-06T12:02:21.249Z,7.43
2023-05-06T12:04:23.416Z,5.25
2023-05-06T12:06:31.795Z,7.75
2023-05-06T12:08:36.207Z,5.68
2023-05-06T12:10:39.945Z,5.57
2023-05-06T12:12:42.249Z,4.97
2023-05-06T12:14:45.852Z,1.92
2023-05-06T12:16:48.263Z,3.17
2023-05-06T12:18:53.797Z,7.75
2023-05-06T12:20:56.972Z,5.20
2023-05-06T12:23:05.468Z,4.82
2023-05-06T12:25:14.165Z,5.57
2023-05-06T12:27:31.242Z,3.30
2023-05-06T12:29:33.255Z,5.85
2023-05-06T12:31:35.499Z,5.57
2023-05-06T12:33:43.876Z,2.33
2023-05-06T12:35:46.098Z,6.43
2023-05-06T12:37:48.415Z,2.97
2023-05-06T12:39:50.485Z,5.30
2023-05-06T12:41:54.043Z,3.28
2023-05-06T12:43:56.477Z,2.63
2023-05-06T12:46:05.396Z,8.07
2023-05-06T12:48:08.496Z,4.00
2023-05-06T12:50:11.018Z,3.30
2023-05-06T12:52:13.798Z,2.63
2023-05-06T12:54:22.227Z,5.10
2023-05-06T12:56:24.416Z,4.07
2023-05-06T12:58:26.714Z,3.08
2023-05-06T13:00:29.027Z,5.72
2023-05-06T13:02:31.195Z,7.70
2023-05-06T13:04:33.384Z,4.50
2023-05-06T13:06:35.614Z,8.90
2023-05-06T13:08:37.917Z,3.33
2023-05-06T13:10:40.175Z,3.67
2023-05-06T13:12:42.550Z,4.32
2023-05-06T13:14:44.627Z,3.50
2023-05-06T13:16:47.117Z,2.17
2023-05-06T13:18:49.908Z,4.32
2023-05-06T13:20:52.111Z,3.90
2023-05-06T13:22:55.326Z,3.40
2023-05-06T13:24:57.838Z,3.20
2023-05-06T13:27:01.609Z,1.60
2023-05-06T13:29:04.471Z,3.47
2023-05-06T13:31:06.776Z,1.20
2023-05-06T13:33:09.166Z,3.00
2023-05-06T13:35:11.684Z,3.30
2023-05-06T13:37:14.135Z,2.72
2023-05-06T13:39:16.453Z,2.47
2023-05-06T13:41:19.959Z,3.28
2023-05-06T13:43:26.497Z,2.65
2023-05-06T13:45:29.196Z,2.42
2023-05-06T13:47:31.810Z,2.97
2023-05-06T13:49:34.976Z,2.80
2023-05-06T13:51:37.546Z,3.15
2023-05-06T13:53:39.681Z,1.83
2023-05-06T13:55:43.147Z,0.85
2023-05-06T13:57:45.388Z,0.55
2023-05-06T13:59:47.804Z,2.13
2023-05-06T14:01:50.314Z,1.38
2023-05-06T14:03:53.615Z,0.77
2023-05-06T14:05:56.584Z,1.17
2023-05-06T14:07:58.966Z,2.25
2023-05-06T14:10:01.266Z,2.20
2023-05-06T14:12:03.622Z,1.02
2023-05-06T14:14:06.694Z,1.92
2023-05-06T14:16:09.046Z,3.13
2023-05-06T14:18:11.327Z,1.98
2023-05-06T14:20:14.337Z,1.38
2023-05-06T14:22:16.871Z,0.85
2023-05-06T14:24:19.322Z,0.38
2023-05-06T14:26:21.693Z,1.60
2023-05-06T14:28:24.111Z,2.65
2023-05-06T14:30:26.599Z,2.00
2023-05-06T14:32:28.948Z,0.70
2023-05-06T14:34:31.179Z,2.13
2023-05-06T14:36:33.304Z,1.95
2023-05-06T14:38:35.325Z,1.13
2023-05-06T14:40:38.969Z,2.63
2023-05-06T14:42:41.142Z,5.78
2023-05-06T14:44:45.474Z,1.73
2023-05-06T14:46:48.259Z,2.70
2023-05-06T14:48:50.895Z,2.58
2023-05-06T14:50:53.374Z,1.35
2023-05-06T14:52:55.861Z,2.58
2023-05-06T14:54:58.128Z,1.60
2023-05-06T14:57:03.236Z,1.42
2023-05-06T14:59:05.739Z,2.25
2023-05-06T15:01:08.253Z,4.88
2023-05-06T15:03:10.482Z,3.10
2023-05-06T15:05:13.986Z,2.53
2023-05-06T15:07:16.917Z,4.80
2023-05-06T15:09:19.382Z,4.97
2023-05-06T15:11:21.702Z,5.65
2023-05-06T15:13:23.839Z,2.15
2023-05-06T15:15:26.010Z,3.05
2023-05-06T15:17:28.927Z,2.45
2023-05-06T15:19:31.080Z,3.35
2023-05-06T15:21:33.306Z,3.58
2023-05-06T15:23:35.498Z,3.13
2023-05-06T15:25:38.606Z,2.92
2023-05-06T15:27:41.119Z,7.03
2023-05-06T15:29:43.790Z,3.95
2023-05-06T15:31:46.473Z,5.10
2023-05-06T15:33:48.637Z,3.42
2023-05-06T15:35:50.912Z,4.30
2023-05-06T15:37:58.957Z,4.03
2023-05-06T15:40:01.430Z,3.70
2023-05-06T15:42:04.123Z,3.25
2023-05-06T15:44:06.653Z,3.60
2023-05-06T15:46:09.291Z,2.47
2023-05-06T15:48:11.668Z,2.17
2023-05-06T15:50:25.354Z,3.38
2023-05-06T15:52:35.664Z,3.65
2023-05-06T15:54:38.184Z,4.45
2023-05-06T15:56:41.610Z,4.85
2023-05-06T15:58:44.527Z,5.68
2023-05-06T16:00:46.820Z,5.15
2023-05-06T16:02:49.565Z,3.10
2023-05-06T16:04:52.088Z,4.93
2023-05-06T16:06:54.315Z,4.90
2023-05-06T16:08:56.902Z,3.92
2023-05-06T16:10:59.680Z,3.22
2023-05-06T16:13:01.833Z,2.65
2023-05-06T16:15:04.497Z,3.05
2023-05-06T16:17:06.703Z,2.15
2023-05-06T16:19:10.494Z,5.43
2023-05-06T16:21:13.231Z,3.83
2023-05-06T16:23:16.451Z,4.03
2023-05-06T16:25:18.582Z,4.05
2023-05-06T16:27:21.058Z,2.75
2023-05-06T16:29:23.284Z,3.53
2023-05-06T16:31:25.529Z,8.18
2023-05-06T16:33:28.072Z,3.83
2023-05-06T16:35:30.624Z,3.08
2023-05-06T16:37:32.819Z,4.80
2023-05-06T16:39:35.307Z,7.43
2023-05-06T16:41:37.310Z,3.17
2023-05-06T16:43:39.535Z,3.78
2023-05-06T16:45:45.787Z,3.90
2023-05-06T16:47:48.433Z,4.22
2023-05-06T16:49:51.047Z,2.97
2023-05-06T16:51:53.331Z,4.75
2023-05-06T16:53:55.481Z,3.85
2023-05-06T16:55:57.873Z,4.18
2023-05-06T16:58:02.230Z,3.47
2023-05-06T17:00:08.281Z,2.80
2023-05-06T17:02:10.666Z,1.70
2023-05-06T17:04:13.470Z,5.88
2023-05-06T17:06:15.794Z,2.40
2023-05-06T17:08:18.802Z,7.82
2023-05-06T17:10:22.354Z,5.00
2023-05-06T17:12:24.567Z,4.80
2023-05-06T17:14:26.938Z,5.20
2023-05-06T17:16:29.222Z,5.18
2023-05-06T17:18:31.396Z,7.68
2023-05-06T17:20:40.716Z,4.47
2023-05-06T17:22:50.429Z,9.63
2023-05-06T17:24:52.689Z,5.43
2023-05-06T17:26:54.762Z,5.13
2023-05-06T17:28:57.062Z,8.00
2023-05-06T17:30:59.680Z,5.68
2023-05-06T17:33:01.931Z,5.75
2023-05-06T17:35:04.483Z,6.82
2023-05-06T17:37:07.252Z,4.32
2023-05-06T17:39:09.725Z,6.35
2023-05-06T17:41:12.354Z,8.57
2023-05-06T17:43:14.612Z,5.45
2023-05-06T17:45:17.455Z,6.60
2023-05-06T17:47:22.978Z,4.97
2023-05-06T17:49:25.545Z,9.00
2023-05-06T17:51:27.852Z,8.70
2023-05-06T17:53:30.178Z,5.95
2023-05-06T17:55:32.458Z,6.30
2023-05-06T17:57:34.874Z,6.68
2023-05-06T17:59:37.412Z,9.80
2023-05-06T18:01:39.614Z,5.20
2023-05-06T18:03:41.943Z,6.68
2023-05-06T18:05:44.440Z,8.35
2023-05-06T18:07:47.139Z,9.05
2023-05-06T18:09:52.251Z,12.05
2023-05-06T18:11:54.475Z,8.45
2023-05-06T18:13:56.635Z,10.30
2023-05-06T18:15:58.785Z,8.55
2023-05-06T18:18:01.076Z,9.45
2023-05-06T18:20:03.860Z,10.57
2023-05-06T18:22:05.998Z,11.43
2023-05-06T18:24:16.088Z,10.13
2023-05-06T18:26:39.480Z,11.95
2023-05-06T18:28:41.562Z,7.57
2023-05-06T18:30:43.752Z,6.18
2023-05-06T18:32:45.954Z,12.07
2023-05-06T18:34:48.032Z,8.13
2023-05-06T18:36:50.290Z,10.73
2023-05-06T18:38:52.355Z,8.88
2023-05-06T18:40:54.584Z,12.02
2023-05-06T18:42:56.919Z,8.07
2023-05-06T18:44:59.638Z,9.95
2023-05-06T18:47:02.330Z,7.88
2023-05-06T18:49:04.685Z,7.30
2023-05-06T18:51:11.959Z,6.70
2023-05-06T18:53:14.152Z,12.77
2023-05-06T18:55:16.236Z,7.57
2023-05-06T18:57:19.910Z,9.23
2023-05-06T18:59:22.256Z,6.57
2023-05-06T19:01:25.326Z,6.80
2023-05-06T19:03:27.926Z,6.65
2023-05-06T19:05:30.321Z,6.05
2023-05-06T19:07:32.587Z,10.02
2023-05-06T19:09:37.549Z,15.23
2023-05-06T19:11:39.737Z,8.15
2023-05-06T19:13:44.672Z,4.82
2023-05-06T19:15:46.795Z,7.75
2023-05-06T19:17:48.931Z,6.63
2023-05-06T19:19:51.501Z,10.52
2023-05-06T19:21:54.105Z,4.50
2023-05-06T19:24:00.017Z,6.45
2023-05-06T19:26:02.739Z,5.03
2023-05-06T19:28:06.594Z,5.70
2023-05-06T19:30:09.950Z,6.60
2023-05-06T19:32:12.348Z,6.55
2023-05-06T19:34:14.414Z,4.88
2023-05-06T19:36:17.010Z,9.40
2023-05-06T19:38:19.963Z,8.27
2023-05-06T19:40:23.047Z,4.07
2023-05-06T19:42:25.176Z,7.13
2023-05-06T19:44:27.388Z,5.50
2023-05-06T19:46:29.503Z,6.53
2023-05-06T19:48:32.993Z,7.32
2023-05-06T19:50:36.908Z,7.70
2023-05-06T19:52:38.949Z,6.03
2023-05-06T19:54:41.873Z,4.78
2023-05-06T19:56:44.037Z,5.60
2023-05-06T19:58:46.237Z,7.90
2023-05-06T20:00:48.453Z,7.53
2023-05-06T20:02:50.803Z,6.22
2023-05-06T20:04:53.103Z,5.85
2023-05-06T20:06:55.257Z,5.15
2023-05-06T20:08:57.325Z,6.75
2023-05-06T20:10:59.480Z,8.35
2023-05-06T20:13:02.498Z,7.18
2023-05-06T20:15:05.310Z,6.03
2023-05-06T20:17:07.551Z,7.88
2023-05-06T20:19:09.822Z,8.20
2023-05-06T20:21:11.857Z,4.85
2023-05-06T20:23:14.033Z,8.40
2023-05-06T20:25:17.731Z,9.80
2023-05-06T20:27:21.568Z,9.57
2023-05-06T20:29:23.705Z,9.57
2023-05-06T20:31:25.880Z,9.80
2023-05-06T20:33:28.016Z,9.18
2023-05-06T20:35:30.296Z,7.65
2023-05-06T20:37:34.009Z,7.78
2023-05-06T20:39:36.687Z,12.27
2023-05-06T20:41:39.080Z,11.20
2023-05-06T20:43:41.409Z,8.73
2023-05-06T20:45:43.499Z,9.90
2023-05-06T20:47:45.836Z,8.98
2023-05-06T20:49:47.907Z,10.68
2023-05-06T20:51:50.039Z,7.70
2023-05-06T20:53:52.469Z,8.32
2023-05-06T20:55:54.821Z,9.73
2023-05-06T20:57:56.893Z,7.00
2023-05-06T20:59:58.904Z,9.85
2023-05-06T21:02:01.435Z,7.72
2023-05-06T21:04:04.917Z,10.52
2023-05-06T21:06:07.174Z,10.60
2023-05-06T21:08:09.146Z,12.82
2023-05-06T21:10:11.400Z,9.30
2023-05-06T21:12:13.420Z,8.35
2023-05-06T21:14:15.473Z,7.78
2023-05-06T21:16:17.580Z,8.23
2023-05-06T21:18:20.020Z,10.50
2023-05-06T21:20:22.297Z,8.80
2023-05-06T21:22:24.761Z,10.98
2023-05-06T21:24:26.917Z,8.60
2023-05-06T21:26:30.972Z,8.55
2023-05-06T21:28:32.956Z,7.05
2023-05-06T21:30:36.034Z,9.55
2023-05-06T21:32:38.495Z,13.95
2023-05-06T21:34:40.557Z,11.98
2023-05-06T21:36:42.569Z,13.93
2023-05-06T21:38:45.092Z,8.05
2023-05-06T21:40:47.118Z,12.98
2023-05-06T21:42:50.565Z,10.20
2023-05-06T21:44:52.515Z,8.55
2023-05-06T21:46:54.659Z,11.07
2023-05-06T21:48:57.209Z,13.00
2023-05-06T21:51:03.671Z,9.90
2023-05-06T21:53:05.786Z,12.35
2023-05-06T21:55:08.644Z,13.10
2023-05-06T21:57:12.674Z,12.13
2023-05-06T21:59:14.721Z,11.38
2023-05-06T22:01:17.052Z,10.73
2023-05-06T22:03:19.265Z,10.70
2023-05-06T22:05:21.775Z,14.55
2023-05-06T22:07:23.905Z,10.23
2023-05-06T22:09:26.130Z,13.32
2023-05-06T22:11:28.109Z,8.68
2023-05-06T22:13:30.204Z,9.45
2023-05-06T22:15:32.460Z,9.88
2023-05-06T22:17:34.883Z,9.70
2023-05-06T22:19:36.949Z,10.23
2023-05-06T22:21:39.528Z,13.13
2023-05-06T22:23:41.600Z,10.93
2023-05-06T22:25:43.599Z,8.68
2023-05-06T22:27:45.652Z,10.93
2023-05-06T22:29:47.596Z,10.85
2023-05-06T22:31:49.841Z,10.23
2023-05-06T22:33:55.679Z,9.77
2023-05-06T22:35:57.960Z,10.90
2023-05-06T22:38:00.055Z,9.50
2023-05-06T22:40:02.335Z,9.43
2023-05-06T22:42:04.264Z,11.73
2023-05-06T22:44:06.540Z,9.45
2023-05-06T22:46:08.668Z,9.20
2023-05-06T22:48:11.399Z,10.13
2023-05-06T22:50:13.488Z,8.02
2023-05-06T22:52:15.564Z,8.60
2023-05-06T22:54:17.608Z,6.18
2023-05-06T22:56:20.259Z,4.85
2023-05-06T22:58:22.241Z,4.80
2023-05-06T23:00:24.487Z,4.05
2023-05-06T23:02:26.703Z,4.00
2023-05-06T23:04:28.716Z,6.20
2023-05-06T23:06:31.900Z,4.57
2023-05-06T23:08:33.924Z,3.25
2023-05-06T23:10:36.619Z,4.03
2023-05-06T23:12:38.697Z,4.22
2023-05-06T23:14:40.859Z,4.32
2023-05-06T23:16:43.082Z,7.28
2023-05-06T23:18:46.367Z,3.40
2023-05-06T23:20:48.355Z,4.00
2023-05-06T23:22:50.541Z,5.30
2023-05-06T23:24:52.564Z,5.30
2023-05-06T23:26:54.681Z,5.20
2023-05-06T23:28:58.014Z,4.53
2023-05-06T23:31:00.735Z,3.53
2023-05-06T23:33:04.021Z,5.28
2023-05-06T23:35:07.914Z,8.85
2023-05-06T23:37:12.012Z,4.53
2023-05-06T23:39:14.069Z,3.20
2023-05-06T23:41:16.067Z,3.80
2023-05-06T23:43:18.028Z,2.90
2023-05-06T23:45:20.580Z,3.47
2023-05-06T23:47:24.579Z,4.50
2023-05-06T23:49:26.627Z,2.97
2023-05-06T23:51:28.644Z,3.60
2023-05-06T23:53:30.761Z,4.70
2023-05-06T23:55:33.052Z,2.55
2023-05-06T23:57:35.263Z,3.65
2023-05-06T23:59:37.436Z,4.03
